sensor_id;sensor_type;location;lat;lon;timestamp;P1;durP1;ratioP1;P2;durP2;ratioP2
42414;SDS011;28058;46.344;17.786;2022-09-09T00:01:02;5.30;;;3.22;;
42414;SDS011;28058;46.344;17.786;2022-09-09T00:03:45;5.75;;;2.97;;
42414;SDS011;28058;46.344;17.786;2022-09-09T00:06:28;4.80;;;2.40;;
42414;SDS011;28058;46.344;17.786;2022-09-09T00:11:50;4.15;;;1.92;;
42414;SDS011;28058;46.344;17.786;2022-09-09T00:14:21;4.50;;;1.70;;
42414;SDS011;28058;46.344;17.786;2022-09-09T00:17:00;3.85;;;1.50;;
42414;SDS011;28058;46.344;17.786;2022-09-09T00:22:19;2.17;;;1.30;;
42414;SDS011;28058;46.344;17.786;2022-09-09T00:24:51;3.33;;;1.33;;
42414;SDS011;28058;46.344;17.786;2022-09-09T00:27:31;2.10;;;1.10;;
42414;SDS011;28058;46.344;17.786;2022-09-09T00:32:37;1.42;;;1.10;;
42414;SDS011;28058;46.344;17.786;2022-09-09T00:35:14;1.73;;;1.10;;
42414;SDS011;28058;46.344;17.786;2022-09-09T00:37:46;2.92;;;1.42;;
42414;SDS011;28058;46.344;17.786;2022-09-09T00:40:22;2.58;;;1.33;;
42414;SDS011;28058;46.344;17.786;2022-09-09T00:42:55;2.05;;;1.27;;
42414;SDS011;28058;46.344;17.786;2022-09-09T00:45:52;3.58;;;1.40;;
42414;SDS011;28058;46.344;17.786;2022-09-09T00:48:23;2.00;;;1.30;;
42414;SDS011;28058;46.344;17.786;2022-09-09T00:51:09;2.10;;;1.60;;
42414;SDS011;28058;46.344;17.786;2022-09-09T00:53:58;2.63;;;1.40;;
42414;SDS011;28058;46.344;17.786;2022-09-09T00:56:35;2.53;;;1.20;;
42414;SDS011;28058;46.344;17.786;2022-09-09T00:59:26;3.60;;;1.90;;
42414;SDS011;28058;46.344;17.786;2022-09-09T01:02:07;3.35;;;1.92;;
42414;SDS011;28058;46.344;17.786;2022-09-09T01:05:00;3.97;;;2.10;;
42414;SDS011;28058;46.344;17.786;2022-09-09T01:07:33;5.22;;;2.60;;
42414;SDS011;28058;46.344;17.786;2022-09-09T01:10:01;6.85;;;2.55;;
42414;SDS011;28058;46.344;17.786;2022-09-09T01:12:41;5.20;;;3.40;;
42414;SDS011;28058;46.344;17.786;2022-09-09T01:15:11;5.85;;;3.75;;
42414;SDS011;28058;46.344;17.786;2022-09-09T01:28:46;4.53;;;3.17;;
42414;SDS011;28058;46.344;17.786;2022-09-09T01:31:17;5.93;;;3.78;;
42414;SDS011;28058;46.344;17.786;2022-09-09T01:34:14;5.05;;;3.22;;
42414;SDS011;28058;46.344;17.786;2022-09-09T01:39:18;2.05;;;1.45;;
42414;SDS011;28058;46.344;17.786;2022-09-09T01:41:46;2.22;;;1.50;;
42414;SDS011;28058;46.344;17.786;2022-09-09T01:44:13;4.93;;;1.48;;
42414;SDS011;28058;46.344;17.786;2022-09-09T01:46:40;3.03;;;1.73;;
42414;SDS011;28058;46.344;17.786;2022-09-09T01:49:07;5.35;;;1.95;;
42414;SDS011;28058;46.344;17.786;2022-09-09T01:51:36;3.72;;;1.88;;
42414;SDS011;28058;46.344;17.786;2022-09-09T01:54:05;2.50;;;1.75;;
42414;SDS011;28058;46.344;17.786;2022-09-09T01:56:40;2.63;;;1.92;;
42414;SDS011;28058;46.344;17.786;2022-09-09T02:07:32;4.53;;;3.53;;
42414;SDS011;28058;46.344;17.786;2022-09-09T02:10:08;3.40;;;2.10;;
42414;SDS011;28058;46.344;17.786;2022-09-09T02:12:49;3.47;;;2.15;;
42414;SDS011;28058;46.344;17.786;2022-09-09T02:18:21;4.82;;;2.33;;
42414;SDS011;28058;46.344;17.786;2022-09-09T02:20:53;4.38;;;2.00;;
42414;SDS011;28058;46.344;17.786;2022-09-09T02:23:22;5.47;;;3.03;;
42414;SDS011;28058;46.344;17.786;2022-09-09T02:25:49;4.70;;;4.10;;
42414;SDS011;28058;46.344;17.786;2022-09-09T02:28:19;3.88;;;2.60;;
42414;SDS011;28058;46.344;17.786;2022-09-09T02:30:51;2.80;;;2.40;;
42414;SDS011;28058;46.344;17.786;2022-09-09T02:33:25;3.70;;;2.83;;
42414;SDS011;28058;46.344;17.786;2022-09-09T02:35:55;4.22;;;2.50;;
42414;SDS011;28058;46.344;17.786;2022-09-09T02:38:28;7.28;;;3.17;;
42414;SDS011;28058;46.344;17.786;2022-09-09T02:40:58;6.70;;;4.20;;
42414;SDS011;28058;46.344;17.786;2022-09-09T02:43:25;4.57;;;2.90;;
42414;SDS011;28058;46.344;17.786;2022-09-09T02:57:19;3.20;;;2.53;;
42414;SDS011;28058;46.344;17.786;2022-09-09T02:59:45;5.75;;;5.13;;
42414;SDS011;28058;46.344;17.786;2022-09-09T03:02:13;3.08;;;2.10;;
42414;SDS011;28058;46.344;17.786;2022-09-09T03:04:40;3.38;;;2.30;;
42414;SDS011;28058;46.344;17.786;2022-09-09T03:07:10;2.50;;;1.60;;
42414;SDS011;28058;46.344;17.786;2022-09-09T03:09:38;3.17;;;1.90;;
42414;SDS011;28058;46.344;17.786;2022-09-09T03:12:05;5.07;;;2.92;;
42414;SDS011;28058;46.344;17.786;2022-09-09T03:14:32;2.75;;;1.70;;
42414;SDS011;28058;46.344;17.786;2022-09-09T03:16:59;3.92;;;2.50;;
42414;SDS011;28058;46.344;17.786;2022-09-09T03:19:27;4.40;;;2.80;;
42414;SDS011;28058;46.344;17.786;2022-09-09T03:21:54;3.72;;;2.83;;
42414;SDS011;28058;46.344;17.786;2022-09-09T03:24:20;2.70;;;2.28;;
42414;SDS011;28058;46.344;17.786;2022-09-09T03:26:48;3.22;;;2.00;;
42414;SDS011;28058;46.344;17.786;2022-09-09T03:29:16;3.70;;;2.83;;
42414;SDS011;28058;46.344;17.786;2022-09-09T03:31:44;4.28;;;3.35;;
42414;SDS011;28058;46.344;17.786;2022-09-09T03:34:11;4.57;;;2.38;;
42414;SDS011;28058;46.344;17.786;2022-09-09T03:36:39;2.83;;;1.98;;
42414;SDS011;28058;46.344;17.786;2022-09-09T03:39:07;4.45;;;3.25;;
42414;SDS011;28058;46.344;17.786;2022-09-09T03:41:34;7.80;;;5.53;;
42414;SDS011;28058;46.344;17.786;2022-09-09T03:44:01;3.50;;;2.80;;
42414;SDS011;28058;46.344;17.786;2022-09-09T03:46:27;4.10;;;3.00;;
42414;SDS011;28058;46.344;17.786;2022-09-09T03:48:54;5.75;;;4.85;;
42414;SDS011;28058;46.344;17.786;2022-09-09T03:51:21;4.00;;;3.60;;
42414;SDS011;28058;46.344;17.786;2022-09-09T03:53:48;2.75;;;2.28;;
42414;SDS011;28058;46.344;17.786;2022-09-09T03:56:15;2.38;;;1.90;;
42414;SDS011;28058;46.344;17.786;2022-09-09T03:58:42;3.03;;;2.03;;
42414;SDS011;28058;46.344;17.786;2022-09-09T04:01:09;3.40;;;2.63;;
42414;SDS011;28058;46.344;17.786;2022-09-09T04:03:40;2.90;;;1.95;;
42414;SDS011;28058;46.344;17.786;2022-09-09T04:06:08;4.40;;;4.00;;
42414;SDS011;28058;46.344;17.786;2022-09-09T04:08:37;2.58;;;2.13;;
42414;SDS011;28058;46.344;17.786;2022-09-09T04:11:05;3.17;;;2.42;;
42414;SDS011;28058;46.344;17.786;2022-09-09T04:13:36;3.55;;;2.20;;
42414;SDS011;28058;46.344;17.786;2022-09-09T04:16:06;2.72;;;2.05;;
42414;SDS011;28058;46.344;17.786;2022-09-09T04:18:33;5.30;;;2.40;;
42414;SDS011;28058;46.344;17.786;2022-09-09T04:21:01;2.95;;;2.42;;
42414;SDS011;28058;46.344;17.786;2022-09-09T04:23:29;3.60;;;2.88;;
42414;SDS011;28058;46.344;17.786;2022-09-09T04:25:57;4.95;;;2.75;;
42414;SDS011;28058;46.344;17.786;2022-09-09T04:28:26;2.38;;;2.10;;
42414;SDS011;28058;46.344;17.786;2022-09-09T04:30:55;5.45;;;4.35;;
42414;SDS011;28058;46.344;17.786;2022-09-09T04:33:23;8.07;;;5.93;;
42414;SDS011;28058;46.344;17.786;2022-09-09T04:35:53;3.80;;;3.40;;
42414;SDS011;28058;46.344;17.786;2022-09-09T04:38:20;3.72;;;3.30;;
42414;SDS011;28058;46.344;17.786;2022-09-09T04:40:49;6.10;;;2.95;;
42414;SDS011;28058;46.344;17.786;2022-09-09T04:43:18;5.82;;;2.65;;
42414;SDS011;28058;46.344;17.786;2022-09-09T04:45:49;3.80;;;3.40;;
42414;SDS011;28058;46.344;17.786;2022-09-09T04:48:17;6.22;;;3.83;;
42414;SDS011;28058;46.344;17.786;2022-09-09T04:50:53;3.72;;;2.35;;
42414;SDS011;28058;46.344;17.786;2022-09-09T04:53:24;5.35;;;2.00;;
42414;SDS011;28058;46.344;17.786;2022-09-09T04:55:52;2.38;;;1.80;;
42414;SDS011;28058;46.344;17.786;2022-09-09T04:58:27;6.20;;;2.20;;
42414;SDS011;28058;46.344;17.786;2022-09-09T05:00:54;4.63;;;1.88;;
42414;SDS011;28058;46.344;17.786;2022-09-09T05:03:21;4.88;;;2.53;;
42414;SDS011;28058;46.344;17.786;2022-09-09T05:05:48;2.55;;;2.03;;
42414;SDS011;28058;46.344;17.786;2022-09-09T05:08:15;3.17;;;2.20;;
42414;SDS011;28058;46.344;17.786;2022-09-09T05:10:42;3.55;;;2.33;;
42414;SDS011;28058;46.344;17.786;2022-09-09T05:13:08;4.78;;;4.00;;
42414;SDS011;28058;46.344;17.786;2022-09-09T05:15:35;3.80;;;3.40;;
42414;SDS011;28058;46.344;17.786;2022-09-09T05:18:02;3.33;;;2.35;;
42414;SDS011;28058;46.344;17.786;2022-09-09T05:20:29;5.90;;;2.90;;
42414;SDS011;28058;46.344;17.786;2022-09-09T05:22:56;3.83;;;2.15;;
42414;SDS011;28058;46.344;17.786;2022-09-09T05:25:23;4.90;;;3.65;;
42414;SDS011;28058;46.344;17.786;2022-09-09T05:27:53;3.55;;;2.10;;
42414;SDS011;28058;46.344;17.786;2022-09-09T05:30:20;4.22;;;1.80;;
42414;SDS011;28058;46.344;17.786;2022-09-09T05:32:49;4.90;;;4.38;;
42414;SDS011;28058;46.344;17.786;2022-09-09T05:35:16;4.72;;;4.15;;
42414;SDS011;28058;46.344;17.786;2022-09-09T05:37:45;4.38;;;3.40;;
42414;SDS011;28058;46.344;17.786;2022-09-09T05:40:12;6.18;;;3.65;;
42414;SDS011;28058;46.344;17.786;2022-09-09T05:42:39;5.05;;;1.90;;
42414;SDS011;28058;46.344;17.786;2022-09-09T05:45:07;3.53;;;2.10;;
42414;SDS011;28058;46.344;17.786;2022-09-09T05:47:35;2.78;;;2.33;;
42414;SDS011;28058;46.344;17.786;2022-09-09T05:50:03;10.13;;;4.32;;
42414;SDS011;28058;46.344;17.786;2022-09-09T05:52:30;11.30;;;3.08;;
42414;SDS011;28058;46.344;17.786;2022-09-09T05:54:58;5.30;;;4.40;;
42414;SDS011;28058;46.344;17.786;2022-09-09T05:57:26;4.18;;;2.97;;
42414;SDS011;28058;46.344;17.786;2022-09-09T05:59:53;4.88;;;2.30;;
42414;SDS011;28058;46.344;17.786;2022-09-09T06:02:20;3.50;;;2.10;;
42414;SDS011;28058;46.344;17.786;2022-09-09T06:04:47;2.90;;;2.05;;
42414;SDS011;28058;46.344;17.786;2022-09-09T06:07:14;3.58;;;1.90;;
42414;SDS011;28058;46.344;17.786;2022-09-09T06:09:41;3.55;;;1.63;;
42414;SDS011;28058;46.344;17.786;2022-09-09T06:12:07;3.72;;;2.03;;
42414;SDS011;28058;46.344;17.786;2022-09-09T06:14:35;4.68;;;3.63;;
42414;SDS011;28058;46.344;17.786;2022-09-09T06:17:03;6.82;;;2.65;;
42414;SDS011;28058;46.344;17.786;2022-09-09T06:19:30;4.93;;;1.60;;
42414;SDS011;28058;46.344;17.786;2022-09-09T06:21:57;4.13;;;2.03;;
42414;SDS011;28058;46.344;17.786;2022-09-09T06:24:24;3.85;;;2.05;;
42414;SDS011;28058;46.344;17.786;2022-09-09T06:26:51;5.35;;;2.13;;
42414;SDS011;28058;46.344;17.786;2022-09-09T06:29:18;6.53;;;2.00;;
42414;SDS011;28058;46.344;17.786;2022-09-09T06:31:44;5.43;;;2.20;;
42414;SDS011;28058;46.344;17.786;2022-09-09T06:34:11;2.53;;;1.75;;
42414;SDS011;28058;46.344;17.786;2022-09-09T06:36:39;3.05;;;1.83;;
42414;SDS011;28058;46.344;17.786;2022-09-09T06:39:06;4.07;;;1.50;;
42414;SDS011;28058;46.344;17.786;2022-09-09T06:41:40;3.03;;;2.10;;
42414;SDS011;28058;46.344;17.786;2022-09-09T06:44:07;2.17;;;1.58;;
42414;SDS011;28058;46.344;17.786;2022-09-09T06:46:34;1.85;;;1.27;;
42414;SDS011;28058;46.344;17.786;2022-09-09T06:49:02;1.50;;;1.10;;
42414;SDS011;28058;46.344;17.786;2022-09-09T06:51:33;2.05;;;1.27;;
42414;SDS011;28058;46.344;17.786;2022-09-09T06:54:01;1.60;;;1.05;;
42414;SDS011;28058;46.344;17.786;2022-09-09T06:56:39;2.05;;;1.20;;
42414;SDS011;28058;46.344;17.786;2022-09-09T06:59:09;2.05;;;1.10;;
42414;SDS011;28058;46.344;17.786;2022-09-09T07:01:41;2.25;;;1.70;;
42414;SDS011;28058;46.344;17.786;2022-09-09T07:04:17;1.50;;;1.07;;
42414;SDS011;28058;46.344;17.786;2022-09-09T07:06:45;1.85;;;1.48;;
42414;SDS011;28058;46.344;17.786;2022-09-09T07:09:13;2.28;;;1.20;;
42414;SDS011;28058;46.344;17.786;2022-09-09T07:11:45;2.15;;;1.95;;
42414;SDS011;28058;46.344;17.786;2022-09-09T07:14:19;4.88;;;1.30;;
42414;SDS011;28058;46.344;17.786;2022-09-09T07:16:47;5.90;;;1.50;;
42414;SDS011;28058;46.344;17.786;2022-09-09T07:19:14;2.53;;;1.15;;
42414;SDS011;28058;46.344;17.786;2022-09-09T07:21:41;5.82;;;1.20;;
42414;SDS011;28058;46.344;17.786;2022-09-09T07:24:09;2.92;;;1.10;;
42414;SDS011;28058;46.344;17.786;2022-09-09T07:26:37;1.55;;;0.77;;
42414;SDS011;28058;46.344;17.786;2022-09-09T07:29:05;1.63;;;0.60;;
42414;SDS011;28058;46.344;17.786;2022-09-09T07:31:33;0.52;;;0.40;;
42414;SDS011;28058;46.344;17.786;2022-09-09T07:34:03;1.02;;;0.73;;
42414;SDS011;28058;46.344;17.786;2022-09-09T07:36:32;0.85;;;0.60;;
42414;SDS011;28058;46.344;17.786;2022-09-09T07:39:03;1.70;;;0.60;;
42414;SDS011;28058;46.344;17.786;2022-09-09T07:41:40;2.42;;;0.68;;
42414;SDS011;28058;46.344;17.786;2022-09-09T07:44:10;1.45;;;0.63;;
42414;SDS011;28058;46.344;17.786;2022-09-09T07:46:47;0.90;;;0.60;;
42414;SDS011;28058;46.344;17.786;2022-09-09T07:49:15;2.03;;;0.90;;
42414;SDS011;28058;46.344;17.786;2022-09-09T07:51:42;1.13;;;0.57;;
42414;SDS011;28058;46.344;17.786;2022-09-09T07:54:12;1.38;;;0.70;;
42414;SDS011;28058;46.344;17.786;2022-09-09T07:56:40;2.22;;;0.60;;
42414;SDS011;28058;46.344;17.786;2022-09-09T07:59:07;1.73;;;0.70;;
42414;SDS011;28058;46.344;17.786;2022-09-09T08:01:38;1.73;;;0.50;;
42414;SDS011;28058;46.344;17.786;2022-09-09T08:04:08;1.23;;;0.73;;
42414;SDS011;28058;46.344;17.786;2022-09-09T08:06:44;1.20;;;0.60;;
42414;SDS011;28058;46.344;17.786;2022-09-09T08:09:22;1.50;;;0.70;;
42414;SDS011;28058;46.344;17.786;2022-09-09T08:11:51;2.70;;;0.93;;
42414;SDS011;28058;46.344;17.786;2022-09-09T08:14:18;1.90;;;0.60;;
42414;SDS011;28058;46.344;17.786;2022-09-09T08:16:46;0.80;;;0.50;;
42414;SDS011;28058;46.344;17.786;2022-09-09T08:19:16;1.60;;;0.80;;
42414;SDS011;28058;46.344;17.786;2022-09-09T08:21:43;3.15;;;1.08;;
42414;SDS011;28058;46.344;17.786;2022-09-09T08:24:11;3.78;;;0.82;;
42414;SDS011;28058;46.344;17.786;2022-09-09T08:26:42;5.78;;;0.75;;
42414;SDS011;28058;46.344;17.786;2022-09-09T08:29:11;2.75;;;1.00;;
42414;SDS011;28058;46.344;17.786;2022-09-09T08:31:40;4.35;;;0.70;;
42414;SDS011;28058;46.344;17.786;2022-09-09T08:34:09;1.50;;;0.70;;
42414;SDS011;28058;46.344;17.786;2022-09-09T08:36:38;1.70;;;0.75;;
42414;SDS011;28058;46.344;17.786;2022-09-09T08:39:11;7.63;;;1.23;;
42414;SDS011;28058;46.344;17.786;2022-09-09T08:47:35;0.90;;;0.45;;
42414;SDS011;28058;46.344;17.786;2022-09-09T08:52:52;1.98;;;0.68;;
42414;SDS011;28058;46.344;17.786;2022-09-09T08:55:29;2.08;;;0.80;;
42414;SDS011;28058;46.344;17.786;2022-09-09T08:58:21;1.45;;;0.70;;
42414;SDS011;28058;46.344;17.786;2022-09-09T09:00:56;3.13;;;0.80;;
42414;SDS011;28058;46.344;17.786;2022-09-09T09:11:26;2.60;;;0.80;;
42414;SDS011;28058;46.344;17.786;2022-09-09T09:16:33;0.98;;;0.40;;
42414;SDS011;28058;46.344;17.786;2022-09-09T09:19:05;1.92;;;0.55;;
42414;SDS011;28058;46.344;17.786;2022-09-09T09:21:43;2.08;;;0.70;;
42414;SDS011;28058;46.344;17.786;2022-09-09T09:26:50;0.40;;;0.40;;
42414;SDS011;28058;46.344;17.786;2022-09-09T09:29:17;2.58;;;0.77;;
42414;SDS011;28058;46.344;17.786;2022-09-09T09:31:51;2.05;;;0.80;;
42414;SDS011;28058;46.344;17.786;2022-09-09T09:34:21;2.35;;;0.68;;
42414;SDS011;28058;46.344;17.786;2022-09-09T09:36:56;1.55;;;0.60;;
42414;SDS011;28058;46.344;17.786;2022-09-09T09:39:33;1.15;;;0.63;;
42414;SDS011;28058;46.344;17.786;2022-09-09T09:42:25;3.90;;;0.80;;
42414;SDS011;28058;46.344;17.786;2022-09-09T09:44:52;1.75;;;0.75;;
42414;SDS011;28058;46.344;17.786;2022-09-09T09:47:20;1.58;;;0.50;;
42414;SDS011;28058;46.344;17.786;2022-09-09T09:54:48;2.05;;;0.80;;
42414;SDS011;28058;46.344;17.786;2022-09-09T09:57:16;1.50;;;0.40;;
42414;SDS011;28058;46.344;17.786;2022-09-09T09:59:44;0.55;;;0.40;;
42414;SDS011;28058;46.344;17.786;2022-09-09T10:02:23;1.15;;;0.52;;
42414;SDS011;28058;46.344;17.786;2022-09-09T10:05:15;1.00;;;0.50;;
42414;SDS011;28058;46.344;17.786;2022-09-09T10:07:40;2.17;;;0.60;;
42414;SDS011;28058;46.344;17.786;2022-09-09T10:10:08;3.80;;;0.70;;
42414;SDS011;28058;46.344;17.786;2022-09-09T10:13:06;0.68;;;0.35;;
42414;SDS011;28058;46.344;17.786;2022-09-09T10:18:38;2.28;;;0.60;;
42414;SDS011;28058;46.344;17.786;2022-09-09T10:23:52;0.70;;;0.40;;
42414;SDS011;28058;46.344;17.786;2022-09-09T10:26:39;1.17;;;0.57;;
42414;SDS011;28058;46.344;17.786;2022-09-09T10:40:36;2.45;;;0.70;;
42414;SDS011;28058;46.344;17.786;2022-09-09T10:43:30;3.92;;;0.60;;
42414;SDS011;28058;46.344;17.786;2022-09-09T10:48:48;1.65;;;0.70;;
42414;SDS011;28058;46.344;17.786;2022-09-09T10:51:38;1.33;;;0.60;;
42414;SDS011;28058;46.344;17.786;2022-09-09T10:56:42;2.22;;;0.77;;
42414;SDS011;28058;46.344;17.786;2022-09-09T10:59:20;2.65;;;1.00;;
42414;SDS011;28058;46.344;17.786;2022-09-09T11:04:40;1.38;;;0.75;;
42414;SDS011;28058;46.344;17.786;2022-09-09T11:07:16;1.25;;;0.68;;
42414;SDS011;28058;46.344;17.786;2022-09-09T11:10:01;2.10;;;0.55;;
42414;SDS011;28058;46.344;17.786;2022-09-09T11:12:33;5.47;;;0.80;;
42414;SDS011;28058;46.344;17.786;2022-09-09T11:15:15;1.35;;;0.43;;
42414;SDS011;28058;46.344;17.786;2022-09-09T11:17:50;1.08;;;0.63;;
42414;SDS011;28058;46.344;17.786;2022-09-09T11:20:23;1.40;;;0.77;;
42414;SDS011;28058;46.344;17.786;2022-09-09T11:22:53;3.45;;;1.02;;
42414;SDS011;28058;46.344;17.786;2022-09-09T11:25:28;1.08;;;0.40;;
42414;SDS011;28058;46.344;17.786;2022-09-09T11:39:36;2.03;;;0.50;;
42414;SDS011;28058;46.344;17.786;2022-09-09T11:42:34;1.60;;;0.77;;
42414;SDS011;28058;46.344;17.786;2022-09-09T11:47:58;1.77;;;0.50;;
42414;SDS011;28058;46.344;17.786;2022-09-09T11:50:31;2.30;;;0.60;;
42414;SDS011;28058;46.344;17.786;2022-09-09T11:53:47;1.08;;;0.50;;
42414;SDS011;28058;46.344;17.786;2022-09-09T11:55:59;2.63;;;0.57;;
42414;SDS011;28058;46.344;17.786;2022-09-09T11:58:27;2.53;;;0.68;;
42414;SDS011;28058;46.344;17.786;2022-09-09T12:00:58;6.03;;;0.88;;
42414;SDS011;28058;46.344;17.786;2022-09-09T12:03:45;5.57;;;1.10;;
42414;SDS011;28058;46.344;17.786;2022-09-09T12:06:19;3.75;;;0.85;;
42414;SDS011;28058;46.344;17.786;2022-09-09T12:08:57;2.35;;;0.77;;
42414;SDS011;28058;46.344;17.786;2022-09-09T12:11:34;2.67;;;0.85;;
42414;SDS011;28058;46.344;17.786;2022-09-09T12:14:01;4.38;;;0.60;;
42414;SDS011;28058;46.344;17.786;2022-09-09T12:16:28;1.20;;;0.50;;
42414;SDS011;28058;46.344;17.786;2022-09-09T12:19:07;4.78;;;0.60;;
42414;SDS011;28058;46.344;17.786;2022-09-09T12:21:51;4.55;;;0.50;;
42414;SDS011;28058;46.344;17.786;2022-09-09T12:27:58;3.03;;;0.80;;
42414;SDS011;28058;46.344;17.786;2022-09-09T12:30:43;1.65;;;0.60;;
42414;SDS011;28058;46.344;17.786;2022-09-09T12:33:19;1.73;;;0.80;;
42414;SDS011;28058;46.344;17.786;2022-09-09T12:35:48;1.63;;;0.63;;
42414;SDS011;28058;46.344;17.786;2022-09-09T12:38:43;3.28;;;0.75;;
42414;SDS011;28058;46.344;17.786;2022-09-09T12:41:19;1.17;;;0.60;;
42414;SDS011;28058;46.344;17.786;2022-09-09T12:43:51;1.80;;;0.65;;
42414;SDS011;28058;46.344;17.786;2022-09-09T12:46:32;1.33;;;0.40;;
42414;SDS011;28058;46.344;17.786;2022-09-09T12:49:03;2.28;;;0.50;;
42414;SDS011;28058;46.344;17.786;2022-09-09T12:51:32;1.52;;;0.60;;
42414;SDS011;28058;46.344;17.786;2022-09-09T12:54:04;2.85;;;0.55;;
42414;SDS011;28058;46.344;17.786;2022-09-09T12:56:32;1.20;;;0.60;;
42414;SDS011;28058;46.344;17.786;2022-09-09T12:58:59;1.13;;;0.55;;
42414;SDS011;28058;46.344;17.786;2022-09-09T13:01:30;1.40;;;0.50;;
42414;SDS011;28058;46.344;17.786;2022-09-09T13:03:59;1.50;;;0.60;;
42414;SDS011;28058;46.344;17.786;2022-09-09T13:06:30;6.45;;;1.00;;
42414;SDS011;28058;46.344;17.786;2022-09-09T13:09:00;1.65;;;0.90;;
42414;SDS011;28058;46.344;17.786;2022-09-09T13:11:41;5.38;;;0.70;;
42414;SDS011;28058;46.344;17.786;2022-09-09T13:14:22;2.80;;;0.65;;
42414;SDS011;28058;46.344;17.786;2022-09-09T13:16:59;3.90;;;0.50;;
42414;SDS011;28058;46.344;17.786;2022-09-09T13:19:28;3.13;;;0.60;;
42414;SDS011;28058;46.344;17.786;2022-09-09T13:21:58;3.55;;;0.68;;
42414;SDS011;28058;46.344;17.786;2022-09-09T13:24:30;1.55;;;0.40;;
42414;SDS011;28058;46.344;17.786;2022-09-09T13:27:03;0.88;;;0.50;;
42414;SDS011;28058;46.344;17.786;2022-09-09T13:29:32;2.85;;;0.60;;
42414;SDS011;28058;46.344;17.786;2022-09-09T13:32:33;3.97;;;0.70;;
42414;SDS011;28058;46.344;17.786;2022-09-09T13:34:58;3.20;;;0.80;;
42414;SDS011;28058;46.344;17.786;2022-09-09T13:37:33;3.97;;;0.85;;
42414;SDS011;28058;46.344;17.786;2022-09-09T13:40:00;4.18;;;1.15;;
42414;SDS011;28058;46.344;17.786;2022-09-09T13:42:29;4.07;;;0.90;;
42414;SDS011;28058;46.344;17.786;2022-09-09T13:44:58;5.15;;;1.10;;
42414;SDS011;28058;46.344;17.786;2022-09-09T13:47:31;2.38;;;0.60;;
42414;SDS011;28058;46.344;17.786;2022-09-09T13:52:57;4.63;;;0.70;;
42414;SDS011;28058;46.344;17.786;2022-09-09T13:55:25;2.17;;;0.70;;
42414;SDS011;28058;46.344;17.786;2022-09-09T13:57:55;4.13;;;0.70;;
42414;SDS011;28058;46.344;17.786;2022-09-09T14:00:24;3.42;;;1.00;;
42414;SDS011;28058;46.344;17.786;2022-09-09T14:02:51;3.08;;;0.75;;
42414;SDS011;28058;46.344;17.786;2022-09-09T14:05:22;4.63;;;0.60;;
42414;SDS011;28058;46.344;17.786;2022-09-09T14:07:50;2.15;;;0.70;;
42414;SDS011;28058;46.344;17.786;2022-09-09T14:10:18;1.38;;;0.50;;
42414;SDS011;28058;46.344;17.786;2022-09-09T14:12:55;3.78;;;0.73;;
42414;SDS011;28058;46.344;17.786;2022-09-09T14:15:22;0.50;;;0.40;;
42414;SDS011;28058;46.344;17.786;2022-09-09T14:17:49;1.15;;;0.52;;
42414;SDS011;28058;46.344;17.786;2022-09-09T14:20:16;1.58;;;0.60;;
42414;SDS011;28058;46.344;17.786;2022-09-09T14:22:43;3.90;;;0.85;;
42414;SDS011;28058;46.344;17.786;2022-09-09T14:25:10;5.03;;;0.55;;
42414;SDS011;28058;46.344;17.786;2022-09-09T14:27:39;2.08;;;0.60;;
42414;SDS011;28058;46.344;17.786;2022-09-09T14:30:08;4.72;;;0.73;;
42414;SDS011;28058;46.344;17.786;2022-09-09T14:32:35;6.72;;;1.00;;
42414;SDS011;28058;46.344;17.786;2022-09-09T14:35:02;4.85;;;1.10;;
42414;SDS011;28058;46.344;17.786;2022-09-09T14:37:29;2.55;;;0.70;;
42414;SDS011;28058;46.344;17.786;2022-09-09T14:39:57;2.10;;;0.80;;
42414;SDS011;28058;46.344;17.786;2022-09-09T14:42:24;3.47;;;0.90;;
42414;SDS011;28058;46.344;17.786;2022-09-09T14:44:53;3.90;;;0.80;;
42414;SDS011;28058;46.344;17.786;2022-09-09T14:47:19;5.50;;;1.17;;
42414;SDS011;28058;46.344;17.786;2022-09-09T14:49:46;3.50;;;0.60;;
42414;SDS011;28058;46.344;17.786;2022-09-09T14:52:16;2.47;;;0.60;;
42414;SDS011;28058;46.344;17.786;2022-09-09T14:54:43;1.40;;;0.50;;
42414;SDS011;28058;46.344;17.786;2022-09-09T14:57:10;1.73;;;0.60;;
42414;SDS011;28058;46.344;17.786;2022-09-09T14:59:36;3.83;;;0.90;;
42414;SDS011;28058;46.344;17.786;2022-09-09T15:02:03;3.40;;;0.80;;
42414;SDS011;28058;46.344;17.786;2022-09-09T15:04:30;2.40;;;0.70;;
42414;SDS011;28058;46.344;17.786;2022-09-09T15:06:58;2.80;;;0.90;;
42414;SDS011;28058;46.344;17.786;2022-09-09T15:09:25;3.38;;;0.63;;
42414;SDS011;28058;46.344;17.786;2022-09-09T15:11:52;6.30;;;0.70;;
42414;SDS011;28058;46.344;17.786;2022-09-09T15:14:19;2.28;;;0.80;;
42414;SDS011;28058;46.344;17.786;2022-09-09T15:16:50;4.50;;;0.80;;
42414;SDS011;28058;46.344;17.786;2022-09-09T15:19:19;5.97;;;0.88;;
42414;SDS011;28058;46.344;17.786;2022-09-09T15:21:45;1.58;;;0.70;;
42414;SDS011;28058;46.344;17.786;2022-09-09T15:24:12;5.05;;;0.95;;
42414;SDS011;28058;46.344;17.786;2022-09-09T15:26:40;2.67;;;0.88;;
42414;SDS011;28058;46.344;17.786;2022-09-09T15:29:07;5.28;;;1.30;;
42414;SDS011;28058;46.344;17.786;2022-09-09T15:31:34;4.18;;;0.70;;
42414;SDS011;28058;46.344;17.786;2022-09-09T15:34:03;6.03;;;0.90;;
42414;SDS011;28058;46.344;17.786;2022-09-09T15:38:58;4.80;;;0.90;;
42414;SDS011;28058;46.344;17.786;2022-09-09T15:41:27;2.72;;;0.75;;
42414;SDS011;28058;46.344;17.786;2022-09-09T15:43:55;3.47;;;0.98;;
42414;SDS011;28058;46.344;17.786;2022-09-09T15:49:05;6.57;;;0.90;;
42414;SDS011;28058;46.344;17.786;2022-09-09T15:51:36;4.55;;;0.98;;
42414;SDS011;28058;46.344;17.786;2022-09-09T15:54:09;3.33;;;1.10;;
42414;SDS011;28058;46.344;17.786;2022-09-09T15:56:40;6.15;;;1.40;;
42414;SDS011;28058;46.344;17.786;2022-09-09T15:59:08;5.22;;;1.00;;
42414;SDS011;28058;46.344;17.786;2022-09-09T16:01:35;5.97;;;0.93;;
42414;SDS011;28058;46.344;17.786;2022-09-09T16:04:02;6.20;;;0.98;;
42414;SDS011;28058;46.344;17.786;2022-09-09T16:06:30;8.57;;;1.55;;
42414;SDS011;28058;46.344;17.786;2022-09-09T16:08:57;13.65;;;2.63;;
42414;SDS011;28058;46.344;17.786;2022-09-09T16:11:28;27.83;;;3.03;;
42414;SDS011;28058;46.344;17.786;2022-09-09T16:13:58;16.63;;;3.70;;
42414;SDS011;28058;46.344;17.786;2022-09-09T16:16:26;5.63;;;1.55;;
42414;SDS011;28058;46.344;17.786;2022-09-09T16:18:55;2.58;;;0.80;;
42414;SDS011;28058;46.344;17.786;2022-09-09T16:21:30;4.07;;;0.80;;
42414;SDS011;28058;46.344;17.786;2022-09-09T16:24:01;1.92;;;0.85;;
42414;SDS011;28058;46.344;17.786;2022-09-09T16:26:31;3.13;;;0.77;;
42414;SDS011;28058;46.344;17.786;2022-09-09T16:29:01;5.18;;;0.95;;
42414;SDS011;28058;46.344;17.786;2022-09-09T16:31:29;2.00;;;0.73;;
42414;SDS011;28058;46.344;17.786;2022-09-09T16:33:58;2.35;;;0.93;;
42414;SDS011;28058;46.344;17.786;2022-09-09T16:36:26;4.05;;;0.77;;
42414;SDS011;28058;46.344;17.786;2022-09-09T16:38:55;2.17;;;0.90;;
42414;SDS011;28058;46.344;17.786;2022-09-09T16:41:27;7.38;;;1.10;;
42414;SDS011;28058;46.344;17.786;2022-09-09T16:44:08;6.75;;;0.90;;
42414;SDS011;28058;46.344;17.786;2022-09-09T16:46:37;5.28;;;1.30;;
42414;SDS011;28058;46.344;17.786;2022-09-09T16:49:07;9.13;;;1.30;;
42414;SDS011;28058;46.344;17.786;2022-09-09T16:51:39;1.88;;;0.80;;
42414;SDS011;28058;46.344;17.786;2022-09-09T16:54:10;2.72;;;1.30;;
42414;SDS011;28058;46.344;17.786;2022-09-09T16:56:38;2.95;;;0.80;;
42414;SDS011;28058;46.344;17.786;2022-09-09T16:59:11;3.88;;;1.48;;